Duckwater, Nevada Weather observations

Data are for 10 minute period ending at time listed.
 Day   Time   Solar   Ave.   Ave.  Ave.  Vector  Max.   Baro.   Total    
  of    of     Rad.   Air    Rel.  Wind   Wind   Wind  Press.  Precip.   
Year   Day            Temp.  Hum.  Speed  Dir.   Gust                    
2015   (PST)   w/m2    F      %     mph   deg.    mph    mb.     in.    
-----------------------------------------------------------------------
 183    9:10    999  999.0   999  999.0   999   999.0   999.0  999.00  
 183    9:20    999  999.0   999  999.0   999   999.0   999.0  999.00  
 183    9:30    999  999.0   999  999.0   999   999.0   999.0  999.00  
 183    9:40    999  999.0   999  999.0   999   999.0   999.0  999.00  
 183    9:50    999  999.0   999  999.0   999   999.0   999.0  999.00  
 183   10:00    999  999.0   999  999.0   999   999.0   999.0  999.00  
 183   10:10    999  999.0   999  999.0   999   999.0   999.0  999.00  
 183   10:20    999  999.0   999  999.0   999   999.0   999.0  999.00  
 183   10:30    999  999.0   999  999.0   999   999.0   999.0  999.00  
 183   10:40    999  999.0   999  999.0   999   999.0   999.0  999.00  
 183   10:50    999  999.0   999  999.0   999   999.0   999.0  999.00  
 183   11:00    999  999.0   999  999.0   999   999.0   999.0  999.00  
 183   11:10    999  999.0   999  999.0   999   999.0   999.0  999.00  
 183   11:20    999  999.0   999  999.0   999   999.0   999.0  999.00  
 183   11:30    999  999.0   999  999.0   999   999.0   999.0  999.00  
 183   11:40    999  999.0   999  999.0   999   999.0   999.0  999.00  
 183   11:50    999  999.0   999  999.0   999   999.0   999.0  999.00  
 183   12:00    999  999.0   999  999.0   999   999.0   999.0  999.00  
 183   12:10    999  999.0   999  999.0   999   999.0   999.0  999.00  
 183   12:20    999  999.0   999  999.0   999   999.0   999.0  999.00  
 183   12:30    999  999.0   999  999.0   999   999.0   999.0  999.00  
 183   12:40    999  999.0   999  999.0   999   999.0   999.0  999.00  
 183   12:50    999  999.0   999  999.0   999   999.0   999.0  999.00  
 183   13:00    999  999.0   999  999.0   999   999.0   999.0  999.00  
 183   13:10    999  999.0   999  999.0   999   999.0   999.0  999.00  
 183   13:20    999  999.0   999  999.0   999   999.0   999.0  999.00  
 183   13:30    999  999.0   999  999.0   999   999.0   999.0  999.00  
 183   13:40    999  999.0   999  999.0   999   999.0   999.0  999.00  
 183   13:50    999  999.0   999  999.0   999   999.0   999.0  999.00  
 183   14:00    999  999.0   999  999.0   999   999.0   999.0  999.00  
 183   14:10    999  999.0   999  999.0   999   999.0   999.0  999.00  
 183   14:20    662   92.5    18    2.8   258     5.6   835.8   0.00  
 183   14:30    399   90.6    20    3.5   315     6.5   835.7   0.00  
 183   14:40    779   92.5    17    2.3   342     5.6   835.6   0.00  
 183   14:50    522   91.8    19    4.1   337     6.1   835.4   0.00  
 183   15:00    659   91.8    19    2.3   344     4.4   835.3   0.00  
 183   15:10    447   92.9    18    2.4    15     4.7   835.1   0.00  
 183   15:20    540   92.4    18    3.3   207     7.5   835.0   0.00  
 183   15:30    835   94.5    17    4.1   202     7.9   834.9   0.00  
 183   15:40    705   93.8    17    4.3   230     7.3   834.7   0.00  
 183   15:50    630   92.9    18    4.7   219     8.0   834.6   0.00  
 183   16:00    586   93.4    17    4.6   210     8.7   834.5   0.00  
 183   16:10    588   94.1    17    4.1   189     8.0   834.4   0.00  
 183   16:20    475   94.1    17    4.7   216     8.8   834.3   0.00  
 183   16:30    223   91.1    18    4.4   220     9.3   834.3   0.00  
 183   16:40    222   91.1    18    2.9   184     9.7   834.3   0.00  
 183   16:50    184   89.8    20   11.2   104    23.2   834.3   0.00  
 183   17:00    160   87.9    21   15.8    90    25.6   834.3   0.00  
 183   17:10     81   86.6    22   13.3    77    21.0   834.4   0.00  
 183   17:20     44   83.8    27   14.1    73    21.3   834.8   0.00  
 183   17:30     68   81.9    29   13.1    82    21.9   835.2   0.00  
 183   17:40     93   82.1    29   10.4    98    18.7   835.5   0.00  
 183   17:50     72   82.1    29   10.6   102    16.4   835.7   0.00  
 183   18:00     77   81.9    29   10.9   117    17.0   835.9   0.00  
 183   18:10     47   81.5    30    7.5   103    12.8   836.1   0.00  
 183   18:20     20   80.6    32    5.9    87    10.9   836.1   0.00  
 183   18:30      8   80.5    31    1.8    62     4.3   836.1   0.00  
 183   18:40      6   80.3    32    3.3   100     5.6   836.3   0.00  
 183   18:50      1   78.4    39    6.5    86    10.9   836.3   0.00  
 183   19:00      0   77.8    38    5.4    45     8.3   836.1   0.00  
 183   19:10      0   77.7    40    5.7    37     8.6   836.2   0.00  
 183   19:20      0   77.5    39    5.3    32     8.7   836.3   0.00  
 183   19:30      0   76.5    45    3.3   355     4.5   836.2   0.00  
 183   19:40      0   74.7    50    4.7   313     6.4   836.1   0.00  
 183   19:50      0   74.2    50    4.5   317     9.1   836.0   0.00  
 183   20:00      0   74.7    47    3.2     7     9.1   836.2   0.00  
 183   20:10      0   74.9    50    5.6    17    12.2   836.2   0.00  
 183   20:20      0   75.1    47    7.6     4    10.5   836.2   0.00  
 183   20:30      0   74.8    49    7.9     7    11.8   836.3   0.00  
 183   20:40      0   74.8    48    6.0    17    10.9   836.3   0.00  
 183   20:50      0   74.6    49    3.7    19     7.4   836.2   0.00  
 183   21:00      0   74.5    48    4.2    13     7.0   836.1   0.00  
 183   21:10    999  999.0   999  999.0   999   999.0   999.0  999.00  
 183   21:20    999  999.0   999  999.0   999   999.0   999.0  999.00  
 183   21:30    999  999.0   999  999.0   999   999.0   999.0  999.00  
 183   21:40    999  999.0   999  999.0   999   999.0   999.0  999.00  
 183   21:50    999  999.0   999  999.0   999   999.0   999.0  999.00  
 183   22:00    999  999.0   999  999.0   999   999.0   999.0  999.00  
 183   22:10    999  999.0   999  999.0   999   999.0   999.0  999.00  
 183   22:20      0   73.8    49    3.4   306     5.9   835.9   0.00  
 183   22:30      0   73.9    49    3.2   303     6.8   835.8   0.00  
 183   22:40      0   73.7    49    3.7   315     7.5   835.8   0.00  
 183   22:50      0   74.0    48    3.7   355     7.6   835.9   0.00  
 183   23:00      0   73.1    51    1.8   310     3.0   835.9   0.00  
 183   23:10      0   72.4    53    0.5   331     1.8   835.9   0.00  
 183   23:20      0   72.2    54    1.7   333     4.5   835.9   0.00  
 183   23:30      0   72.4    54    4.2    13     7.1   835.8   0.00  
 183   23:40      0   72.9    52    3.4    20     6.3   835.8   0.00  
 183   23:50      0   72.6    52    2.3    14     4.7   835.7   0.00  
 184    0:00      0   71.1    56    1.0   324     4.1   835.8   0.00  
 184    0:10      0   69.3    61    1.2   282     2.9   835.8   0.00  
 184    0:20      0   68.6    64    2.8   306     4.0   835.8   0.00  
 184    0:30      0   67.1    68    3.3   303     5.3   835.8   0.00  
 184    0:40      0   67.0    66    2.4   331     3.6   835.8   0.00  
 184    0:50      0   67.9    64    2.7     8     3.9   835.7   0.00  
 184    1:00      0   67.8    65    2.9    38     3.7   835.7   0.00  
 184    1:10      0   66.9    66    1.5    52     3.3   835.8   0.00  
 184    1:20      0   67.2    65    2.3   346     4.7   835.7   0.00  
 184    1:30      0   68.1    61    2.8    10     4.2   835.6   0.00  
 184    1:40      0   68.7    59    3.3    13     6.1   835.6   0.00  
 184    1:50      0   68.1    61    3.5   346     6.7   835.6   0.00  
 184    2:00      0   66.2    66    2.8   349     5.4   835.6   0.00  
 184    2:10      0   64.8    69    2.5   298     5.6   835.6   0.00  
 184    2:20      0   62.7    72    2.8   317     5.3   835.6   0.00  
 184    2:30      0   63.5    68    1.3   347     2.6   835.5   0.00  
 184    2:40      0   64.7    65    3.3     9     5.6   835.4   0.00  
 184    2:50      0   64.8    65    3.5   355     7.0   835.4   0.00  
 184    3:00      0   64.8    66    3.3   354     5.9   835.5   0.00  
 184    3:10      0   65.0    66    2.6    16     6.0   835.5   0.00  
 184    3:20      0   65.7    65    2.9     7     6.0   835.6   0.00  
 184    3:30      0   66.4    62    3.9    18     6.6   835.6   0.00  
 184    3:40      0   67.0    59    4.0     2     6.1   835.6   0.00  
 184    3:50      0   67.5    58    3.6    15     6.6   835.6   0.00  
 184    4:00      0   67.2    59    1.1    40     2.6   835.7   0.00  
 184    4:10      0   66.4    61    2.1   354     4.5   835.8   0.00  
 184    4:20      1   63.4    67    0.2   330     2.1   835.8   0.00  
 184    4:30      4   63.2    68    3.2   356     5.3   835.8   0.00  
 184    4:40      7   63.7    67    1.8     5     5.1   835.9   0.00  
 184    4:50     10   63.9    67    2.5    10     5.0   836.0   0.00  
 184    5:00     15   62.0    72    1.0   205     2.5   836.1   0.00  
 184    5:10     20   62.5    72    3.3   332     4.6   836.1   0.00  
 184    5:20     48   63.5    70    3.7   348     5.3   836.1   0.00  
 184    5:30    129   65.9    64    2.5   353     4.6   836.3   0.00  
 184    5:40    145   67.0    63    3.0   341     4.8   836.3   0.00  
 184    5:50    159   66.8    64    4.6   350     5.9   836.2   0.00  
 184    6:00    195   68.3    61    3.6   328     6.6   836.2   0.00  
 184    6:10    232   69.3    60    2.1   325     3.3   836.2   0.00  
 184    6:20    289   71.2    56    2.5   336     4.4   836.3   0.00  
 184    6:30    311   73.1    53    2.0   334     3.0   836.3   0.00  
 184    6:40    355   75.1    49    2.2   347     3.4   836.3   0.00  
 184    6:50    396   76.3    45    2.2   328     3.3   836.3   0.00  
 184    7:00    366   77.5    42    1.8   321     4.0   836.4   0.00  
 184    7:10    382   77.8    42    3.0    14     5.3   836.4   0.00  
 184    7:20    459   78.8    40    2.5   345     4.1   836.4   0.00  
 184    7:30    479   79.4    38    3.1   349     5.5   836.4   0.00  
 184    7:40    557   80.5    35    2.4   356     4.3   836.4   0.00  
 184    7:50    576   82.1    33    1.8    24     3.6   836.4   0.00  
 184    8:00    609   83.8    31    1.8   336     3.9   836.4   0.00  
 184    8:10    567   83.8    30    1.4   285     3.2   836.4   0.00  
 184    8:20    607   85.6    29    2.2   214     6.4   836.4   0.00  
 184    8:30    695   84.9    30    3.6   151     6.7   836.3   0.00  
 184    8:40    679   85.0    29    4.4   187     9.4   836.2   0.00  
 184    8:50    674   85.3    28    4.4   178     8.5   836.1   0.00  
 184    9:00    749   87.4    25    5.2   142    10.2   836.0   0.00  

Return to Duckwater graphs page.


Western Regional Climate Center,wrcc@dri.edu